Time;durP1;ratioP1;P1;durP2;ratioP2;P2;SDS_P1;SDS_P2;PMS_P1;PMS_P2;Temp;Humidity;BMP_temperature;BMP_pressure;BME280_temperature;BME280_humidity;BME280_pressure;Samples;Min_cycle;Max_cycle;Signal;HPM_P1;HPM_P2
2020/12/26 00:01:15;;;;;;;18.73;11.30;;;;;;;13.57;51.92;93325.44;5017182;28;20045;-75
2020/12/26 00:03:40;;;;;;;19.13;11.48;;;;;;;13.56;51.99;93313.25;5013790;28;20060;-74
2020/12/26 00:06:06;;;;;;;19.58;11.70;;;;;;;13.58;52.18;93327.00;5017273;28;20108;-75
2020/12/26 00:08:34;;;;;;;17.42;11.63;;;;;;;13.56;52.05;93328.41;5018643;28;20050;-75
2020/12/26 00:11:06;;;;;;;13.32;10.43;;;;;;;13.52;52.32;93332.78;5013714;28;20046;-75
2020/12/26 00:13:32;;;;;;;17.55;11.80;;;;;;;13.54;52.39;93333.22;5006994;28;20046;-75
2020/12/26 00:15:57;;;;;;;19.15;11.57;;;;;;;13.55;52.19;93332.91;4993540;28;20505;-75
2020/12/26 00:18:23;;;;;;;18.67;11.77;;;;;;;13.62;52.14;93343.06;4998677;28;20080;-75
2020/12/26 00:20:48;;;;;;;20.42;11.63;;;;;;;13.54;52.16;93341.19;4997762;28;20061;-75
2020/12/26 00:23:14;;;;;;;21.75;11.23;;;;;;;13.50;52.19;93346.38;5011132;28;20736;-75
2020/12/26 00:25:41;;;;;;;18.42;11.52;;;;;;;13.57;52.32;93354.63;5014371;28;20054;-75
2020/12/26 00:28:07;;;;;;;21.55;12.82;;;;;;;13.57;52.30;93346.66;5016529;28;20045;-75
2020/12/26 00:30:32;;;;;;;27.88;15.98;;;;;;;13.48;52.44;93340.63;5012666;28;20192;-75
2020/12/26 00:32:58;;;;;;;19.60;12.52;;;;;;;13.51;52.29;93347.16;5018827;28;20021;-75
2020/12/26 00:35:23;;;;;;;23.05;13.48;;;;;;;13.51;52.30;93363.84;5013502;28;20057;-75
2020/12/26 00:37:49;;;;;;;19.65;12.13;;;;;;;13.44;52.58;93348.41;5003608;28;20041;-75
2020/12/26 00:40:14;;;;;;;19.67;12.93;;;;;;;13.45;52.66;93355.28;5002527;28;20942;-75
2020/12/26 00:42:40;;;;;;;21.35;12.70;;;;;;;13.43;52.59;93360.16;5013014;28;20732;-75
2020/12/26 00:45:06;;;;;;;18.90;11.60;;;;;;;13.33;52.69;93336.59;4997158;28;20033;-74
2020/12/26 00:47:32;;;;;;;16.67;11.40;;;;;;;13.38;52.57;93339.06;4990395;28;20040;-75
2020/12/26 00:49:57;;;;;;;18.08;12.50;;;;;;;13.43;52.56;93354.06;4993955;28;20625;-75
2020/12/26 00:52:23;;;;;;;19.83;11.65;;;;;;;13.43;52.78;93362.78;5004715;28;20057;-75
2020/12/26 00:54:48;;;;;;;16.45;10.85;;;;;;;13.40;52.78;93357.31;5013362;28;20502;-75
2020/12/26 00:57:13;;;;;;;19.35;12.18;;;;;;;13.42;52.71;93360.44;4997535;28;20475;-75
2020/12/26 00:59:39;;;;;;;19.08;12.85;;;;;;;13.46;52.57;93366.69;4997503;28;20046;-75
2020/12/26 01:02:04;;;;;;;24.50;14.80;;;;;;;13.47;52.52;93356.84;5010690;28;20079;-78
2020/12/26 01:04:32;;;;;;;19.67;13.45;;;;;;;13.33;52.97;93352.50;4997140;28;20061;-75
2020/12/26 01:06:58;;;;;;;18.05;13.48;;;;;;;13.34;53.02;93367.31;4993652;28;20096;-75
2020/12/26 01:09:24;;;;;;;19.42;12.82;;;;;;;13.30;52.91;93355.00;4995876;28;20097;-75
2020/12/26 01:11:51;;;;;;;17.75;12.25;;;;;;;13.27;53.08;93364.38;5013650;28;20041;-75
2020/12/26 01:14:16;;;;;;;17.52;12.32;;;;;;;13.27;53.44;93369.69;5012137;28;20068;-75
2020/12/26 01:16:42;;;;;;;16.42;11.60;;;;;;;13.13;53.69;93353.16;5006091;28;20406;-75
2020/12/26 01:19:08;;;;;;;15.00;11.23;;;;;;;13.19;53.76;93370.50;5003744;28;20041;-75
2020/12/26 01:21:34;;;;;;;18.65;10.02;;;;;;;13.07;54.32;93365.00;5018992;28;20029;-74
2020/12/26 01:23:59;;;;;;;14.30;9.43;;;;;;;12.95;55.04;93367.53;5020214;28;20028;-75
2020/12/26 01:26:25;;;;;;;14.82;10.23;;;;;;;12.90;55.44;93359.72;5003422;28;20514;-75
2020/12/26 01:28:51;;;;;;;15.45;10.75;;;;;;;12.92;55.74;93357.53;5008477;28;20037;-75
2020/12/26 01:31:16;;;;;;;13.48;10.57;;;;;;;12.91;55.95;93351.44;5021638;28;20037;-75
2020/12/26 01:33:43;;;;;;;12.50;9.40;;;;;;;12.88;56.20;93351.28;5017306;28;20482;-75
2020/12/26 01:36:12;;;;;;;16.55;11.00;;;;;;;12.83;56.98;93354.88;5019039;28;20033;-74
2020/12/26 01:38:38;;;;;;;16.25;11.48;;;;;;;12.70;58.00;93345.22;5022317;28;20502;-75
2020/12/26 01:41:04;;;;;;;16.05;10.93;;;;;;;12.75;58.03;93341.63;5006024;28;20060;-75
2020/12/26 01:43:30;;;;;;;16.30;11.07;;;;;;;12.70;58.93;93328.53;5006409;28;20456;-75
2020/12/26 01:45:55;;;;;;;15.75;10.55;;;;;;;12.66;59.93;93335.56;5015350;28;20049;-74
2020/12/26 01:48:21;;;;;;;18.77;11.65;;;;;;;12.49;60.72;93323.84;4997535;28;20929;-74
2020/12/26 01:50:48;;;;;;;18.35;11.10;;;;;;;12.51;60.39;93326.19;5016019;28;20034;-75
2020/12/26 01:53:14;;;;;;;23.00;11.88;;;;;;;12.56;61.00;93313.53;5003319;28;20613;-75
2020/12/26 01:55:41;;;;;;;13.63;10.63;;;;;;;12.55;61.15;93309.34;4995945;28;20042;-75
2020/12/26 01:58:13;;;;;;;13.63;10.18;;;;;;;12.52;61.77;93317.91;5000255;28;20092;-75
2020/12/26 02:00:39;;;;;;;12.43;9.45;;;;;;;12.58;61.71;93327.28;5000135;28;20056;-75
2020/12/26 02:03:05;;;;;;;13.48;8.88;;;;;;;12.53;62.04;93329.31;5001581;28;20028;-76
2020/12/26 02:05:31;;;;;;;13.45;9.88;;;;;;;12.54;62.07;93323.69;5012582;28;20037;-75
2020/12/26 02:07:57;;;;;;;15.93;9.65;;;;;;;12.55;61.83;93327.91;5016463;28;20042;-75
2020/12/26 02:10:23;;;;;;;15.43;9.50;;;;;;;12.47;62.44;93333.97;5012926;28;20034;-75
2020/12/26 02:12:48;;;;;;;11.60;8.07;;;;;;;12.46;62.69;93329.75;4997371;28;20033;-75
2020/12/26 02:15:14;;;;;;;12.68;8.48;;;;;;;12.53;62.27;93316.03;4998178;28;20505;-75
2020/12/26 02:17:40;;;;;;;12.35;8.50;;;;;;;12.59;61.98;93320.09;5001121;28;20091;-75
2020/12/26 02:20:06;;;;;;;12.25;8.00;;;;;;;12.49;62.54;93323.84;4996584;28;20034;-74
2020/12/26 02:22:32;;;;;;;12.75;8.50;;;;;;;12.51;63.12;93326.94;5007227;28;20141;-74
2020/12/26 02:24:58;;;;;;;11.20;8.07;;;;;;;12.52;63.05;93331.16;5016941;28;20570;-75
2020/12/26 02:27:53;;;;;;;12.00;8.25;;;;;;;12.41;63.24;93331.78;5037226;28;20052;-78
2020/12/26 02:30:28;;;;;;;10.90;8.27;;;;;;;12.47;63.13;93331.31;4926936;28;20219;-77
2020/12/26 02:32:54;;;;;;;11.07;8.18;;;;;;;12.49;62.67;93321.19;5012830;28;20052;-77
2020/12/26 02:35:19;;;;;;;12.70;8.40;;;;;;;12.55;62.73;93327.91;5002015;28;20402;-74
2020/12/26 02:37:45;;;;;;;9.15;7.70;;;;;;;12.47;63.29;93319.94;4996562;28;20041;-74
2020/12/26 02:40:10;;;;;;;10.45;7.38;;;;;;;12.47;63.73;93319.94;5003174;28;20075;-74
2020/12/26 02:42:36;;;;;;;8.88;6.82;;;;;;;12.43;63.82;93319.78;5017253;28;20032;-74
2020/12/26 02:45:02;;;;;;;14.57;7.60;;;;;;;12.45;63.56;93316.84;4997687;28;20026;-74
2020/12/26 02:47:28;;;;;;;14.27;7.03;;;;;;;12.47;63.51;93331.31;5000370;28;20034;-75
2020/12/26 02:49:54;;;;;;;10.15;7.05;;;;;;;12.48;63.26;93332.88;5002416;28;20125;-74
2020/12/26 02:52:19;;;;;;;8.95;6.57;;;;;;;12.59;62.87;93346.63;5004997;28;20490;-75
2020/12/26 02:54:45;;;;;;;16.35;10.50;;;;;;;12.60;62.65;93356.13;5012309;28;20041;-74
2020/12/26 02:57:10;;;;;;;32.40;17.02;;;;;;;12.67;62.11;93372.34;5019346;28;20696;-77
2020/12/26 02:59:36;;;;;;;21.08;14.13;;;;;;;12.69;61.94;93364.09;5016749;28;20688;-77
2020/12/26 03:02:01;;;;;;;19.00;12.23;;;;;;;12.73;61.67;93355.19;5004743;28;20533;-75
2020/12/26 03:04:27;;;;;;;18.27;11.00;;;;;;;12.80;61.60;93365.34;5003692;28;21021;-74
2020/12/26 03:06:53;;;;;;;18.38;11.10;;;;;;;12.78;62.12;93354.25;5017539;28;20065;-74
2020/12/26 03:09:18;;;;;;;17.35;12.60;;;;;;;12.83;62.16;93352.22;5018540;28;20033;-74
2020/12/26 03:11:44;;;;;;;18.80;12.38;;;;;;;12.91;62.08;93358.59;5019749;28;20054;-74
2020/12/26 03:14:09;;;;;;;16.25;11.23;;;;;;;12.89;61.98;93342.25;5015551;28;20048;-74
2020/12/26 03:16:34;;;;;;;15.23;11.10;;;;;;;12.88;62.33;93341.47;5017383;28;20703;-74
2020/12/26 03:19:00;;;;;;;17.23;11.93;;;;;;;12.94;62.52;93352.69;5010837;28;20655;-74
2020/12/26 03:21:26;;;;;;;15.82;11.32;;;;;;;12.85;62.81;93357.22;5000371;28;20132;-74
2020/12/26 03:23:51;;;;;;;14.75;11.40;;;;;;;12.82;63.36;93365.78;5016006;28;20033;-74
2020/12/26 03:26:16;;;;;;;15.00;10.70;;;;;;;12.86;63.30;93369.38;5016820;28;20052;-74
2020/12/26 03:28:42;;;;;;;14.27;11.10;;;;;;;12.83;63.68;93370.00;5005734;28;20034;-77
2020/12/26 03:31:08;;;;;;;13.50;11.02;;;;;;;12.81;63.76;93367.66;4995221;28;20038;-77
2020/12/26 03:33:33;;;;;;;14.32;11.13;;;;;;;12.83;63.75;93364.72;4994379;28;20092;-77
2020/12/26 03:35:59;;;;;;;14.15;11.60;;;;;;;12.79;63.69;93363.78;5019737;28;20013;-77
2020/12/26 03:38:24;;;;;;;14.55;11.43;;;;;;;12.79;63.57;93353.16;5015247;28;20513;-77
2020/12/26 03:40:50;;;;;;;14.05;10.40;;;;;;;12.81;63.51;93354.41;5004677;28;20237;-77
2020/12/26 03:43:15;;;;;;;13.65;11.20;;;;;;;12.82;63.42;93363.91;5001013;28;20039;-77
2020/12/26 03:45:40;;;;;;;14.32;11.05;;;;;;;12.86;63.45;93367.50;5016308;28;20497;-74
2020/12/26 03:48:06;;;;;;;12.93;11.18;;;;;;;12.87;63.35;93370.94;5017042;28;20447;-75
2020/12/26 03:50:31;;;;;;;12.27;10.98;;;;;;;12.83;63.32;93370.00;5017318;28;20042;-74
2020/12/26 03:52:57;;;;;;;15.98;11.18;;;;;;;12.86;63.38;93364.06;5014897;28;20037;-75
2020/12/26 03:55:22;;;;;;;14.27;10.70;;;;;;;12.83;63.49;93365.50;5016537;28;20072;-74
2020/12/26 03:57:48;;;;;;;13.75;11.32;;;;;;;12.82;63.59;93360.50;5014876;28;20041;-74
2020/12/26 04:00:13;;;;;;;14.02;11.27;;;;;;;12.81;63.12;93350.97;5018774;28;20032;-74
2020/12/26 04:02:39;;;;;;;13.20;11.80;;;;;;;12.84;63.36;93364.41;5015490;28;20540;-74
2020/12/26 04:05:04;;;;;;;12.65;10.52;;;;;;;12.82;63.19;93369.22;5015256;28;20033;-75
2020/12/26 04:07:30;;;;;;;13.05;11.10;;;;;;;12.82;62.95;93365.78;5016959;28;20045;-74
2020/12/26 04:09:55;;;;;;;16.42;12.75;;;;;;;12.79;63.13;93363.78;5016237;28;20485;-75
2020/12/26 04:12:21;;;;;;;14.52;10.93;;;;;;;12.68;63.52;93367.81;5017828;28;20062;-74
2020/12/26 04:14:46;;;;;;;13.00;10.88;;;;;;;12.58;63.72;93364.38;5032382;28;20052;-75
2020/12/26 04:17:12;;;;;;;11.02;8.93;;;;;;;12.59;63.72;93358.00;5000732;28;20116;-75
2020/12/26 04:19:37;;;;;;;9.57;8.00;;;;;;;12.57;63.65;93354.88;4998506;28;20564;-75
2020/12/26 04:22:03;;;;;;;10.88;8.98;;;;;;;12.57;63.36;93357.50;4994926;28;20046;-74
2020/12/26 04:24:28;;;;;;;12.55;9.07;;;;;;;12.56;63.25;93353.31;4995823;28;20660;-75
2020/12/26 04:26:54;;;;;;;8.07;7.28;;;;;;;12.46;63.56;93350.94;5015260;28;20034;-74
2020/12/26 04:29:23;;;;;;;11.93;9.38;;;;;;;12.54;63.57;93344.13;5000334;28;20565;-74
2020/12/26 04:31:51;;;;;;;11.10;8.93;;;;;;;12.55;63.40;93354.41;4993450;28;20041;-74
2020/12/26 04:34:17;;;;;;;10.15;8.35;;;;;;;12.54;63.28;93341.47;4995858;28;20064;-74
2020/12/26 04:36:43;;;;;;;10.52;8.00;;;;;;;12.57;62.94;93340.84;4994435;28;20128;-75
2020/12/26 04:39:08;;;;;;;11.77;8.20;;;;;;;12.62;62.75;93342.53;5000165;28;20037;-74
2020/12/26 04:41:34;;;;;;;9.35;7.68;;;;;;;12.63;62.25;93336.94;4996761;28;20658;-75
2020/12/26 04:44:02;;;;;;;10.10;7.78;;;;;;;12.61;62.44;93333.06;5007746;28;20108;-75
2020/12/26 04:46:33;;;;;;;13.65;7.85;;;;;;;12.58;62.09;93327.28;5015547;28;20114;-75
2020/12/26 04:49:05;;;;;;;12.18;7.72;;;;;;;12.59;62.19;93339.44;5012371;28;20037;-74
2020/12/26 04:51:35;;;;;;;11.02;7.88;;;;;;;12.52;62.54;93327.72;4997774;28;20390;-75
2020/12/26 04:54:11;;;;;;;10.27;6.95;;;;;;;12.52;62.41;93333.81;5007115;28;20052;-75
2020/12/26 04:56:41;;;;;;;7.80;6.88;;;;;;;12.48;62.39;93327.59;4995052;28;20057;-75
2020/12/26 04:59:09;;;;;;;10.57;8.10;;;;;;;12.50;62.59;93325.41;4998703;28;20088;-75
2020/12/26 05:01:40;;;;;;;16.08;8.32;;;;;;;12.48;62.39;93327.59;5006112;28;20041;-75
2020/12/26 05:04:06;;;;;;;11.77;8.43;;;;;;;12.47;62.14;93338.47;5013194;28;20494;-75
2020/12/26 05:06:44;;;;;;;10.88;8.57;;;;;;;12.37;62.32;93336.91;5013825;28;24556;-75
2020/12/26 05:09:10;;;;;;;12.23;9.00;;;;;;;12.49;62.13;93339.75;4998265;28;20034;-75
2020/12/26 05:11:36;;;;;;;12.90;10.05;;;;;;;12.32;63.14;93337.06;5011224;28;20099;-75
2020/12/26 05:14:08;;;;;;;15.93;12.73;;;;;;;12.33;62.79;93343.94;5001554;28;20045;-75
2020/12/26 05:16:34;;;;;;;13.93;10.88;;;;;;;12.34;62.51;93350.78;5005317;28;20632;-75
2020/12/26 05:19:12;;;;;;;16.40;10.77;;;;;;;12.34;62.58;93350.00;5009753;28;20056;-75
2020/12/26 05:21:38;;;;;;;14.18;9.25;;;;;;;12.31;62.59;93343.47;4997699;28;20034;-75
2020/12/26 05:24:08;;;;;;;14.27;10.23;;;;;;;12.29;62.64;93345.66;5014513;28;20014;-75
2020/12/26 05:26:44;;;;;;;16.40;10.13;;;;;;;12.18;62.70;93336.41;4996363;28;20071;-75
2020/12/26 05:29:11;;;;;;;14.18;10.10;;;;;;;12.23;62.56;93340.78;4992252;28;20046;-75
2020/12/26 05:31:56;;;;;;;15.85;10.50;;;;;;;12.21;62.82;93343.00;5002939;28;20068;-75
2020/12/26 05:34:29;;;;;;;18.38;12.43;;;;;;;12.23;62.95;93344.22;5016344;28;20045;-75
2020/12/26 05:36:57;;;;;;;25.58;14.93;;;;;;;12.19;62.55;93339.84;5014783;28;20037;-75
2020/12/26 05:39:30;;;;;;;17.75;12.32;;;;;;;12.08;62.97;93344.66;5017953;28;20100;-75
2020/12/26 05:41:56;;;;;;;30.20;16.83;;;;;;;12.05;63.48;93350.56;5017066;28;20568;-75
2020/12/26 05:44:29;;;;;;;24.55;14.52;;;;;;;12.03;63.77;93347.44;5010868;28;20045;-75
2020/12/26 05:47:00;;;;;;;26.90;16.52;;;;;;;12.06;63.71;93352.16;5004232;28;20038;-75
2020/12/26 05:49:29;;;;;;;55.85;25.88;;;;;;;12.04;63.46;93349.78;4991138;28;20397;-75
2020/12/26 05:52:03;;;;;;;62.90;30.23;;;;;;;12.05;64.10;93355.88;4994822;28;20034;-75
2020/12/26 05:54:29;;;;;;;87.47;40.42;;;;;;;12.07;63.64;93353.72;5011632;28;20030;-75
2020/12/26 05:57:23;;;;;;;77.82;37.65;;;;;;;12.07;63.18;93356.38;4990559;28;21774;-75
2020/12/26 05:59:54;;;;;;;52.97;27.75;;;;;;;12.05;63.14;93351.38;5011971;28;20084;-75
2020/12/26 06:02:19;;;;;;;31.60;18.92;;;;;;;12.07;63.46;93354.47;4999788;28;20037;-76
2020/12/26 06:04:58;;;;;;;43.03;26.45;;;;;;;12.11;63.26;93349.34;4999711;28;20748;-75
2020/12/26 06:07:27;;;;;;;56.78;32.72;;;;;;;12.09;63.17;93364.75;5011447;28;20113;-75
2020/12/26 06:09:56;;;;;;;86.50;47.92;;;;;;;12.07;63.58;93369.59;5015938;28;20056;-75
2020/12/26 06:12:23;;;;;;;41.55;27.10;;;;;;;12.07;63.65;93369.59;5001292;28;20471;-75
2020/12/26 06:14:49;;;;;;;36.47;22.77;;;;;;;12.10;63.21;93385.66;5015442;28;20080;-75
2020/12/26 06:17:20;;;;;;;38.30;26.05;;;;;;;12.12;63.22;93390.63;4994703;28;20046;-75
2020/12/26 06:19:53;;;;;;;31.65;22.13;;;;;;;12.10;63.56;93380.34;4996578;28;20058;-75
2020/12/26 06:22:19;;;;;;;26.65;17.95;;;;;;;12.07;63.45;93382.84;5005136;28;20048;-75
2020/12/26 06:24:46;;;;;;;27.83;19.00;;;;;;;12.10;63.63;93387.50;5015827;28;20029;-75
2020/12/26 06:27:14;;;;;;;33.28;19.42;;;;;;;12.10;63.81;93380.34;5000432;28;20406;-75
2020/12/26 06:29:44;;;;;;;22.38;15.98;;;;;;;12.05;64.07;93390.31;5016314;28;20083;-75
2020/12/26 06:32:14;;;;;;;36.13;18.77;;;;;;;12.04;64.00;93380.78;5002551;28;20037;-75
2020/12/26 06:34:41;;;;;;;24.33;16.60;;;;;;;12.07;63.67;93388.13;4997450;28;20034;-75
2020/12/26 06:37:10;;;;;;;26.63;18.23;;;;;;;12.04;63.96;93389.53;4995433;28;20049;-75
2020/12/26 06:39:36;;;;;;;28.77;17.92;;;;;;;12.03;64.04;93385.31;4997767;28;22164;-75
2020/12/26 06:42:15;;;;;;;34.83;18.45;;;;;;;12.04;64.06;93386.09;5002201;28;20084;-75
2020/12/26 06:44:43;;;;;;;20.20;14.40;;;;;;;12.10;64.32;93384.88;5013123;28;20519;-75
2020/12/26 06:47:08;;;;;;;25.67;15.52;;;;;;;12.14;64.25;93389.25;5002465;28;20128;-75
2020/12/26 06:49:34;;;;;;;30.00;17.77;;;;;;;12.19;63.83;93393.63;4999342;28;20162;-75
2020/12/26 06:52:00;;;;;;;29.65;19.25;;;;;;;12.23;64.18;93394.56;4995036;28;20046;-75
2020/12/26 06:54:43;;;;;;;44.47;24.38;;;;;;;12.33;64.17;93399.56;4999531;28;20050;-75
2020/12/26 06:57:08;;;;;;;37.75;23.35;;;;;;;12.33;63.87;93394.28;4998766;28;20060;-75
2020/12/26 06:59:35;;;;;;;56.40;33.67;;;;;;;12.30;63.75;93394.13;5014309;28;20073;-75
2020/12/26 07:02:06;;;;;;;61.70;34.38;;;;;;;12.39;63.67;93402.84;5003453;28;20053;-75
2020/12/26 07:04:41;;;;;;;92.72;52.58;;;;;;;12.40;63.67;93399.91;4998156;28;20030;-75
2020/12/26 07:07:11;;;;;;;67.93;39.83;;;;;;;12.38;63.94;93391.47;4999036;28;20106;-75
2020/12/26 07:09:36;;;;;;;37.13;25.60;;;;;;;12.24;64.47;93388.19;5014890;28;20091;-74
2020/12/26 07:12:06;;;;;;;38.08;25.83;;;;;;;12.28;64.65;93386.47;5018586;28;20441;-75
2020/12/26 07:14:38;;;;;;;29.25;20.00;;;;;;;12.34;64.56;93390.53;5017154;28;20479;-75
2020/12/26 07:17:05;;;;;;;21.15;15.55;;;;;;;12.33;64.05;93391.63;5003232;28;20056;-75
2020/12/26 07:19:59;;;;;;;20.00;14.50;;;;;;;12.42;63.78;93387.13;4997624;28;20057;-75
2020/12/26 07:22:30;;;;;;;18.30;15.07;;;;;;;12.42;63.49;93376.53;5003445;28;20041;-75
2020/12/26 07:25:03;;;;;;;20.63;15.05;;;;;;;12.45;63.34;93391.81;5013406;28;20040;-75
2020/12/26 07:27:36;;;;;;;17.35;12.95;;;;;;;12.46;63.46;93385.41;5018666;28;20044;-74
2020/12/26 07:30:12;;;;;;;16.73;12.23;;;;;;;12.53;63.31;93393.69;5011217;28;20049;-74
2020/12/26 07:32:43;;;;;;;14.40;11.00;;;;;;;12.40;63.63;93378.72;4989970;28;20861;-74
2020/12/26 07:35:17;;;;;;;14.05;12.25;;;;;;;12.51;63.66;93387.91;4995859;28;20053;-75
2020/12/26 07:38:03;;;;;;;20.47;15.80;;;;;;;12.52;64.11;93389.47;4996890;28;20054;-74
2020/12/26 07:40:38;;;;;;;18.70;14.88;;;;;;;12.47;63.72;93389.63;4996322;28;21083;-75
2020/12/26 07:43:08;;;;;;;21.52;16.52;;;;;;;12.46;63.97;93388.06;4997307;28;20045;-75
2020/12/26 07:45:35;;;;;;;24.38;19.05;;;;;;;12.47;63.88;93397.56;5012640;28;20082;-75
2020/12/26 07:48:01;;;;;;;25.02;17.20;;;;;;;12.48;63.91;93404.44;5020391;28;20112;-75
2020/12/26 07:50:29;;;;;;;25.27;17.88;;;;;;;12.52;63.67;93396.63;5014902;28;20249;-75
2020/12/26 07:53:06;;;;;;;21.60;15.45;;;;;;;12.48;63.68;93396.50;5014042;28;20083;-75
2020/12/26 07:55:33;;;;;;;21.88;15.30;;;;;;;12.51;63.58;93393.22;5018041;28;20047;-75
2020/12/26 07:58:16;;;;;;;28.83;21.48;;;;;;;12.53;64.03;93391.03;5007660;28;20486;-75
2020/12/26 08:00:44;;;;;;;30.05;21.52;;;;;;;12.56;63.58;93379.81;4996507;28;20032;-75
2020/12/26 08:03:13;;;;;;;26.15;19.27;;;;;;;12.58;64.03;93380.28;4996212;28;20091;-75
2020/12/26 08:05:40;;;;;;;28.48;22.48;;;;;;;12.51;64.23;93379.94;5015225;28;20040;-75
2020/12/26 08:08:16;;;;;;;32.42;20.63;;;;;;;12.55;63.86;93390.75;5016214;28;21111;-74
2020/12/26 08:10:43;;;;;;;26.77;19.10;;;;;;;12.55;63.57;93388.88;5008495;28;20045;-75
2020/12/26 08:13:15;;;;;;;37.20;23.63;;;;;;;12.55;63.95;93383.56;4998575;28;20053;-75
2020/12/26 08:15:41;;;;;;;34.70;25.15;;;;;;;12.60;63.82;93387.94;5013165;28;20572;-74
2020/12/26 08:18:07;;;;;;;37.30;24.60;;;;;;;12.59;63.98;93384.50;4999436;28;20030;-75
2020/12/26 08:20:34;;;;;;;32.70;21.40;;;;;;;12.63;63.71;93391.81;4995294;28;20454;-75
2020/12/26 08:23:00;;;;;;;31.83;24.42;;;;;;;12.62;63.92;93379.66;4993659;28;20124;-75
2020/12/26 08:25:27;;;;;;;31.40;22.35;;;;;;;12.67;63.93;93387.47;4995081;28;20137;-75
2020/12/26 08:27:53;;;;;;;31.70;23.63;;;;;;;12.68;64.05;93384.50;4995400;28;20041;-75
2020/12/26 08:30:29;;;;;;;33.95;22.58;;;;;;;12.72;63.82;93389.97;4996643;28;20424;-75
2020/12/26 08:33:07;;;;;;;33.72;25.00;;;;;;;12.76;63.64;93390.88;4996442;28;20045;-75
2020/12/26 08:35:35;;;;;;;30.10;23.00;;;;;;;12.83;63.21;93377.97;5012610;28;20042;-75
2020/12/26 08:38:08;;;;;;;31.17;22.55;;;;;;;12.80;63.74;93392.63;5012188;28;20041;-75
2020/12/26 08:40:37;;;;;;;29.48;23.02;;;;;;;12.93;63.77;93406.81;5016212;28;20060;-75
2020/12/26 08:43:04;;;;;;;30.15;23.30;;;;;;;12.94;62.99;93403.09;5012249;28;20044;-75
2020/12/26 08:45:29;;;;;;;29.13;21.00;;;;;;;12.98;63.01;93402.16;5019815;28;20044;-75
2020/12/26 08:47:58;;;;;;;25.48;21.90;;;;;;;13.01;62.90;93403.38;5015931;28;20125;-75
2020/12/26 08:50:25;;;;;;;25.70;20.30;;;;;;;12.98;63.18;93391.53;5014703;28;20371;-75
2020/12/26 08:53:02;;;;;;;28.95;20.95;;;;;;;12.97;62.73;93392.63;5026472;28;20069;-74
2020/12/26 08:55:27;;;;;;;34.20;24.95;;;;;;;13.07;62.67;93391.53;5004950;28;20077;-75
2020/12/26 08:57:58;;;;;;;33.83;20.92;;;;;;;13.08;63.08;93387.78;4996746;28;20105;-74
2020/12/26 09:00:23;;;;;;;23.58;19.67;;;;;;;13.06;62.84;93384.66;4998880;28;20395;-75
2020/12/26 09:02:51;;;;;;;29.38;22.75;;;;;;;13.10;62.92;93390.09;5011615;28;20037;-75
2020/12/26 09:05:34;;;;;;;33.10;24.17;;;;;;;13.11;63.26;93389.84;4998577;28;20041;-74
2020/12/26 09:08:08;;;;;;;27.83;21.50;;;;;;;13.15;63.00;93385.47;5005207;28;20120;-75
2020/12/26 09:10:35;;;;;;;33.15;24.50;;;;;;;13.12;63.32;93370.19;5005009;28;20117;-75
2020/12/26 09:13:02;;;;;;;22.00;17.95;;;;;;;13.13;62.77;93374.41;4996178;28;20581;-75
2020/12/26 09:15:47;;;;;;;23.85;20.13;;;;;;;13.17;62.27;93391.25;5009428;28;20302;-75
2020/12/26 09:18:17;;;;;;;21.83;18.27;;;;;;;13.15;62.31;93382.03;5010034;28;20072;-75
2020/12/26 09:20:57;;;;;;;23.38;17.40;;;;;;;13.14;61.89;93380.47;5009191;28;20559;-75
2020/12/26 09:23:24;;;;;;;20.13;17.65;;;;;;;13.19;62.02;93373.16;4992426;28;20545;-74
2020/12/26 09:25:50;;;;;;;25.85;17.88;;;;;;;13.23;62.17;93368.75;4993469;28;20077;-75
2020/12/26 09:28:17;;;;;;;23.10;18.95;;;;;;;13.32;61.75;93372.19;5001147;28;20141;-75
2020/12/26 09:30:44;;;;;;;27.00;19.50;;;;;;;13.26;61.86;93357.50;5010097;28;20478;-75
2020/12/26 09:33:10;;;;;;;24.90;18.63;;;;;;;13.32;61.82;93369.53;4995049;28;20032;-75
2020/12/26 09:35:35;;;;;;;35.88;28.45;;;;;;;13.35;61.98;93370.75;4990673;28;20046;-75
2020/12/26 09:38:02;;;;;;;27.42;23.75;;;;;;;13.35;61.57;93363.56;5002818;28;20045;-75
2020/12/26 09:40:35;;;;;;;25.27;18.33;;;;;;;13.34;62.07;93354.06;5016491;28;20059;-75
2020/12/26 09:43:02;;;;;;;20.67;17.17;;;;;;;13.36;61.41;93369.66;5015722;28;20600;-75
2020/12/26 09:45:28;;;;;;;30.33;21.20;;;;;;;13.38;61.49;93370.94;5017189;28;20025;-75
2020/12/26 09:47:58;;;;;;;21.92;17.20;;;;;;;13.49;61.03;93363.38;5015845;28;20037;-75
2020/12/26 09:50:26;;;;;;;23.40;17.25;;;;;;;13.52;60.98;93377.91;5001118;28;20037;-76
2020/12/26 09:52:52;;;;;;;21.17;16.48;;;;;;;13.58;61.02;93374.78;5007597;28;20128;-75
2020/12/26 09:55:17;;;;;;;23.05;17.58;;;;;;;13.62;61.00;93382.88;5020182;28;20456;-75
2020/12/26 09:57:43;;;;;;;22.67;18.95;;;;;;;13.60;60.68;93371.78;4990756;28;20022;-75
2020/12/26 10:00:09;;;;;;;19.42;17.35;;;;;;;13.59;60.51;93364.91;4996166;28;20385;-75
2020/12/26 10:02:35;;;;;;;22.90;18.10;;;;;;;13.68;60.15;93378.97;5011662;28;20057;-75
2020/12/26 10:05:04;;;;;;;33.47;22.95;;;;;;;13.75;59.91;93374.72;4999776;28;20042;-75
2020/12/26 10:07:32;;;;;;;28.40;20.70;;;;;;;13.72;59.58;93361.31;5005425;28;20120;-76
2020/12/26 10:09:57;;;;;;;21.48;16.20;;;;;;;13.81;58.94;93372.66;5012854;28;20042;-76
2020/12/26 10:12:23;;;;;;;60.70;38.70;;;;;;;13.75;59.34;93355.34;5032883;28;20029;-75
2020/12/26 10:14:48;;;;;;;27.83;20.80;;;;;;;13.77;59.40;93356.59;5012447;28;20064;-75
2020/12/26 10:17:14;;;;;;;23.17;18.52;;;;;;;13.81;59.56;93356.72;5013705;28;20521;-75
2020/12/26 10:19:39;;;;;;;25.10;18.85;;;;;;;13.85;59.14;93352.34;5015370;28;20401;-77
2020/12/26 10:22:05;;;;;;;22.60;18.55;;;;;;;13.85;59.11;93362.97;5004211;28;20075;-75
2020/12/26 10:24:30;;;;;;;27.95;19.60;;;;;;;13.87;58.92;93352.81;5011689;28;20025;-76
2020/12/26 10:26:56;;;;;;;42.88;28.48;;;;;;;13.91;58.55;93361.69;4997487;28;20503;-75
2020/12/26 10:29:21;;;;;;;32.90;21.73;;;;;;;13.91;58.86;93351.06;4999880;28;20585;-76
2020/12/26 10:31:47;;;;;;;27.63;20.50;;;;;;;13.82;58.83;93360.97;4993259;28;20115;-76
2020/12/26 10:34:13;;;;;;;25.60;21.10;;;;;;;13.86;58.81;93351.25;4991601;28;20616;-75
2020/12/26 10:36:42;;;;;;;29.65;22.73;;;;;;;13.89;58.74;93359.34;5010014;28;20022;-76
2020/12/26 10:39:08;;;;;;;27.05;22.52;;;;;;;13.95;58.13;93357.28;4996881;28;20617;-76
2020/12/26 10:41:33;;;;;;;30.25;21.27;;;;;;;13.99;58.45;93347.59;4995161;28;20061;-76
2020/12/26 10:43:59;;;;;;;28.58;21.27;;;;;;;14.07;57.78;93354.75;4991963;28;20801;-76
2020/12/26 10:46:24;;;;;;;29.50;21.70;;;;;;;14.08;57.95;93361.59;4996406;28;20045;-75
2020/12/26 10:55:36;;;;;;;30.02;22.73;;;;;;;13.19;61.82;93372.38;5038400;27;20870;-76
2020/12/26 10:58:02;;;;;;;31.48;22.95;;;;;;;13.36;61.30;93364.34;5001563;28;20038;-75
2020/12/26 11:00:27;;;;;;;39.67;26.42;;;;;;;13.42;61.04;93363.88;5037270;28;20041;-75
2020/12/26 11:02:53;;;;;;;42.22;26.42;;;;;;;13.51;60.60;93357.75;5001065;28;20482;-76
2020/12/26 11:05:18;;;;;;;40.50;31.73;;;;;;;13.61;60.11;93368.03;5005030;28;20065;-76
2020/12/26 11:07:44;;;;;;;38.17;29.92;;;;;;;13.65;59.81;93368.97;5005343;28;20571;-76
2020/12/26 11:10:09;;;;;;;38.33;24.92;;;;;;;13.66;59.29;93370.53;5007962;28;20040;-75
2020/12/26 11:12:35;;;;;;;39.45;26.55;;;;;;;13.73;58.58;93386.75;5003425;28;20064;-76
2020/12/26 11:15:01;;;;;;;50.50;40.05;;;;;;;13.80;58.36;93387.03;5008391;28;20026;-76
2020/12/26 11:17:26;;;;;;;48.72;39.25;;;;;;;13.79;58.22;93377.50;5004505;28;20091;-76
2020/12/26 11:19:52;;;;;;;41.47;32.88;;;;;;;13.84;57.84;93374.69;5005399;28;20128;-76
2020/12/26 11:22:17;;;;;;;55.45;40.22;;;;;;;13.80;57.88;93355.16;5036159;28;20041;-76
2020/12/26 11:24:43;;;;;;;48.58;38.65;;;;;;;13.88;58.30;93351.69;5005111;28;20028;-74
2020/12/26 11:27:10;;;;;;;51.63;33.75;;;;;;;13.88;58.18;93357.00;5006428;28;20387;-75
2020/12/26 11:29:35;;;;;;;44.53;34.30;;;;;;;13.97;58.74;93343.69;5006768;28;20088;-75